Time;durP1;ratioP1;P1;durP2;ratioP2;P2;SDS_P1;SDS_P2;PMS_P1;PMS_P2;Temp;Humidity;BMP_temperature;BMP_pressure;BME280_temperature;BME280_humidity;BME280_pressure;Samples;Min_cycle;Max_cycle;Signal;HPM_P1;HPM_P2
2021/08/15 00:00:28;;;;;;;21.57;10.13;;;;;;;21.91;55.93;99041.38;125623;1095;103070;-74
2021/08/15 00:03:16;;;;;;;18.73;10.13;;;;;;;21.88;56.14;99045.28;125691;1095;103087;-74
2021/08/15 00:05:45;;;;;;;20.93;9.33;;;;;;;21.88;56.49;99039.86;125680;1095;103017;-73
2021/08/15 00:08:14;;;;;;;20.63;10.20;;;;;;;21.85;56.27;99041.09;125620;1096;103000;-74
2021/08/15 00:10:42;;;;;;;19.37;9.80;;;;;;;21.85;56.31;99042.94;125658;1095;102908;-73
2021/08/15 00:13:11;;;;;;;19.40;9.37;;;;;;;21.83;56.77;99040.44;125660;1092;102998;-74
2021/08/15 00:15:40;;;;;;;20.23;10.73;;;;;;;21.85;56.39;99045.64;125688;1093;103009;-71
2021/08/15 00:18:09;;;;;;;19.77;10.03;;;;;;;21.84;56.82;99031.28;125667;1095;102941;-73
2021/08/15 00:20:37;;;;;;;18.60;10.20;;;;;;;21.83;56.78;99029.60;125697;1096;102917;-72
2021/08/15 00:23:05;;;;;;;20.27;10.43;;;;;;;21.82;56.82;99035.19;125705;1096;102915;-72
2021/08/15 00:25:34;;;;;;;18.47;9.30;;;;;;;21.81;56.60;99025.38;125650;1093;103015;-73
2021/08/15 00:28:02;;;;;;;24.43;10.30;;;;;;;21.78;57.05;99025.78;125629;1093;103083;-73
2021/08/15 00:30:30;;;;;;;18.00;9.33;;;;;;;21.78;56.50;99028.48;125653;1096;103015;-74
2021/08/15 00:32:59;;;;;;;18.70;9.77;;;;;;;21.75;56.70;99032.39;125688;1096;103088;-74
2021/08/15 00:35:27;;;;;;;19.03;9.47;;;;;;;21.74;56.76;99027.17;125639;1097;103038;-73
2021/08/15 00:37:56;;;;;;;21.07;9.90;;;;;;;21.73;57.13;99026.32;125619;1096;103009;-73
2021/08/15 00:40:24;;;;;;;17.17;8.70;;;;;;;21.71;56.72;99025.66;125670;1095;103030;-74
2021/08/15 00:42:52;;;;;;;18.90;9.07;;;;;;;21.68;56.98;99026.89;125638;1096;102916;-74
2021/08/15 00:45:21;;;;;;;18.10;8.40;;;;;;;21.67;57.20;99032.47;125700;1095;102911;-74
2021/08/15 00:47:49;;;;;;;19.97;9.37;;;;;;;21.66;57.20;99028.94;125650;1096;103027;-74
2021/08/15 00:50:19;;;;;;;17.10;8.55;;;;;;;21.65;57.29;99023.69;125679;1096;102939;-73
2021/08/15 00:52:48;;;;;;;16.97;8.20;;;;;;;21.63;57.57;99025.73;125743;1096;102925;-74
2021/08/15 00:55:16;;;;;;;16.93;8.57;;;;;;;21.63;56.79;99025.73;125648;1096;103022;-72
2021/08/15 00:57:47;;;;;;;19.10;8.57;;;;;;;21.62;57.20;99021.35;125707;1096;103012;-72
2021/08/15 01:00:16;;;;;;;20.07;8.67;;;;;;;21.61;57.27;99022.34;125649;1096;102996;-72
2021/08/15 01:02:50;;;;;;;17.43;8.63;;;;;;;21.61;57.69;99017.79;125696;1094;103084;-72
2021/08/15 01:05:20;;;;;;;20.10;8.40;;;;;;;21.61;57.29;99017.79;125677;1095;103537;-72
2021/08/15 01:07:48;;;;;;;19.70;8.93;;;;;;;21.64;57.36;99017.45;125620;1095;103023;-72
2021/08/15 01:10:18;;;;;;;18.63;9.00;;;;;;;21.64;57.55;99013.89;125689;1095;103000;-72
2021/08/15 01:12:48;;;;;;;18.10;8.67;;;;;;;21.63;57.57;99013.06;125740;1096;102911;-73
2021/08/15 01:15:18;;;;;;;17.77;8.93;;;;;;;21.64;57.71;99020.16;125671;1096;102945;-73
2021/08/15 01:17:46;;;;;;;17.93;9.00;;;;;;;21.61;57.64;99011.52;125676;1091;102940;-73
2021/08/15 01:20:16;;;;;;;17.00;8.13;;;;;;;21.57;57.75;99011.06;125657;1093;103036;-75
2021/08/15 01:22:47;;;;;;;20.37;8.70;;;;;;;21.55;57.73;99021.23;125709;1092;103124;-73
2021/08/15 01:25:16;;;;;;;20.23;9.47;;;;;;;21.51;57.63;99020.77;125641;1093;103064;-73
2021/08/15 01:27:45;;;;;;;20.73;11.47;;;;;;;21.52;57.56;99027.00;125630;1093;103380;-74
2021/08/15 01:30:15;;;;;;;22.70;9.87;;;;;;;21.50;57.89;99051.55;125700;1093;103121;-73
2021/08/15 01:32:45;;;;;;;20.73;9.40;;;;;;;21.47;57.91;99053.77;125721;1092;102938;-74
2021/08/15 01:35:13;;;;;;;17.20;8.33;;;;;;;21.45;58.03;99039.58;125676;1094;102955;-75
2021/08/15 01:37:42;;;;;;;20.05;9.85;;;;;;;21.36;58.06;99028.86;125659;1092;102913;-76
2021/08/15 01:40:12;;;;;;;20.97;9.07;;;;;;;21.29;57.86;99024.34;125647;1093;102913;-75
2021/08/15 01:42:41;;;;;;;16.80;8.45;;;;;;;21.25;58.57;99032.81;125678;1092;102938;-73
2021/08/15 01:45:12;;;;;;;20.60;8.27;;;;;;;21.26;58.17;99044.48;125701;1093;103121;-72
2021/08/15 01:47:40;;;;;;;16.97;8.70;;;;;;;21.27;58.29;99027.23;125709;1093;103038;-72
2021/08/15 01:50:10;;;;;;;16.63;8.30;;;;;;;21.20;58.21;99024.40;125675;1093;102994;-72
2021/08/15 01:52:38;;;;;;;19.07;9.53;;;;;;;21.16;58.32;99030.37;125661;1093;103012;-72
2021/08/15 01:55:08;;;;;;;15.70;8.20;;;;;;;21.15;58.25;99023.27;125681;1093;103031;-72
2021/08/15 01:57:36;;;;;;;18.13;8.47;;;;;;;21.08;58.48;99018.59;125699;1093;103020;-72
2021/08/15 02:00:07;;;;;;;17.83;8.77;;;;;;;21.00;58.50;99025.93;125714;1093;102914;-73
2021/08/15 02:02:40;;;;;;;17.87;9.50;;;;;;;20.98;58.54;99026.13;125677;1093;103003;-73
2021/08/15 02:05:15;;;;;;;18.78;9.45;;;;;;;20.99;58.82;99024.25;125717;1093;102931;-72
2021/08/15 02:07:45;;;;;;;16.13;8.37;;;;;;;20.97;58.78;99016.33;125677;1093;102913;-73
2021/08/15 02:10:14;;;;;;;18.40;9.17;;;;;;;20.90;58.90;99010.78;125730;1093;103415;-75
2021/08/15 02:12:42;;;;;;;22.27;8.67;;;;;;;20.77;58.86;99014.09;125675;1093;103113;-73
2021/08/15 02:15:11;;;;;;;19.17;9.47;;;;;;;20.72;58.85;99005.64;125652;1093;102953;-72
2021/08/15 02:17:40;;;;;;;18.70;9.25;;;;;;;20.70;58.76;99007.67;125668;1093;103157;-74
2021/08/15 02:20:09;;;;;;;18.43;9.03;;;;;;;20.67;58.80;99003.48;125675;1096;102977;-73
2021/08/15 02:22:37;;;;;;;17.93;9.57;;;;;;;20.64;59.09;99001.14;125655;1095;103026;-74
2021/08/15 02:25:09;;;;;;;18.43;8.97;;;;;;;20.64;59.06;99008.39;125697;1096;102929;-73
2021/08/15 02:27:39;;;;;;;17.30;8.60;;;;;;;20.64;59.39;99003.84;125656;1096;103034;-74
2021/08/15 02:30:10;;;;;;;20.70;9.97;;;;;;;20.67;59.32;98991.82;125689;1096;103037;-74
2021/08/15 02:32:40;;;;;;;20.67;8.80;;;;;;;20.69;59.25;98997.89;125750;1096;103048;-74
2021/08/15 02:35:11;;;;;;;19.50;9.63;;;;;;;20.72;59.25;98996.70;125696;1096;103010;-74
2021/08/15 02:37:41;;;;;;;18.50;9.30;;;;;;;20.73;59.50;98998.39;125694;1096;102909;-74
2021/08/15 02:40:11;;;;;;;17.00;8.57;;;;;;;20.72;59.35;98996.70;125688;1096;103015;-74
2021/08/15 02:42:42;;;;;;;19.03;9.70;;;;;;;20.70;59.47;98994.17;125701;1096;102920;-72
2021/08/15 02:45:13;;;;;;;21.80;9.53;;;;;;;20.70;59.61;98987.94;125702;1095;102920;-73
2021/08/15 02:47:42;;;;;;;18.10;9.20;;;;;;;20.67;59.49;98999.93;125675;1095;103012;-73
2021/08/15 02:50:12;;;;;;;17.33;8.87;;;;;;;20.66;59.66;98992.84;125679;1096;103460;-71
2021/08/15 02:52:42;;;;;;;19.70;9.37;;;;;;;20.63;59.61;98991.34;125719;1094;103039;-73
2021/08/15 02:55:11;;;;;;;15.50;8.50;;;;;;;20.62;59.79;98991.52;125637;1093;103081;-72
2021/08/15 02:57:40;;;;;;;17.77;8.23;;;;;;;20.58;59.72;98992.92;125700;1096;103023;-73
2021/08/15 03:00:11;;;;;;;17.53;8.77;;;;;;;20.53;59.80;98990.73;125654;1096;102940;-72
2021/08/15 03:02:41;;;;;;;17.60;9.20;;;;;;;20.51;59.75;98987.36;125705;1093;103016;-73
2021/08/15 03:05:11;;;;;;;19.40;9.50;;;;;;;20.49;59.96;98984.86;125719;1093;103494;-73
2021/08/15 03:07:39;;;;;;;18.37;8.70;;;;;;;20.48;59.99;98993.12;125682;1093;102930;-73
2021/08/15 03:10:09;;;;;;;17.85;9.30;;;;;;;20.46;59.89;98987.91;125687;1093;102936;-73
2021/08/15 03:12:38;;;;;;;17.43;9.13;;;;;;;20.43;59.89;98988.27;125665;1093;102935;-73
2021/08/15 03:15:07;;;;;;;17.53;8.97;;;;;;;20.41;59.91;98989.44;125683;1093;103127;-73
2021/08/15 03:17:35;;;;;;;18.43;8.57;;;;;;;20.37;60.18;98992.53;125690;1093;103010;-73
2021/08/15 03:20:05;;;;;;;19.87;9.13;;;;;;;20.36;59.81;98989.98;125663;1092;103268;-73
2021/08/15 03:22:34;;;;;;;19.17;9.27;;;;;;;20.36;60.08;98998.09;125705;1093;102913;-72
2021/08/15 03:25:02;;;;;;;22.33;9.73;;;;;;;20.36;60.06;98988.14;125663;1093;103007;-73
2021/08/15 03:27:31;;;;;;;18.90;8.80;;;;;;;20.34;60.10;98992.88;125671;1093;103298;-73
2021/08/15 03:29:59;;;;;;;17.83;8.60;;;;;;;20.34;60.18;98992.88;125685;1092;103062;-72
2021/08/15 03:32:28;;;;;;;16.90;9.10;;;;;;;20.35;60.17;98989.16;125663;1093;103185;-72
2021/08/15 03:34:56;;;;;;;22.83;10.17;;;;;;;20.34;60.10;98986.63;125707;1093;103041;-72
2021/08/15 03:37:25;;;;;;;19.47;9.30;;;;;;;20.32;60.41;98981.41;125676;1093;102997;-73
2021/08/15 03:39:54;;;;;;;18.73;9.33;;;;;;;20.33;60.37;98984.94;125699;1093;102913;-72
2021/08/15 03:42:22;;;;;;;17.73;9.20;;;;;;;20.31;60.55;98982.42;125692;1093;104433;-71
2021/08/15 03:44:50;;;;;;;18.97;8.93;;;;;;;20.31;60.48;98985.13;125651;1093;103122;-72
2021/08/15 03:47:19;;;;;;;18.40;9.20;;;;;;;20.32;60.44;98992.21;125678;1093;102926;-71
2021/08/15 03:49:47;;;;;;;17.93;9.33;;;;;;;20.33;60.47;98984.94;125668;1093;102923;-72
2021/08/15 03:52:15;;;;;;;17.45;9.00;;;;;;;20.34;60.58;98986.63;125658;1093;103051;-75
2021/08/15 03:54:44;;;;;;;17.90;8.70;;;;;;;20.34;60.66;98984.77;125691;1093;102955;-73
2021/08/15 03:57:12;;;;;;;18.40;9.00;;;;;;;20.35;60.67;98982.90;125689;1092;102972;-73
2021/08/15 03:59:40;;;;;;;19.10;9.03;;;;;;;20.34;60.65;98979.38;125734;1092;103002;-72
2021/08/15 04:02:08;;;;;;;17.73;9.40;;;;;;;20.35;60.47;98980.20;125686;1093;103518;-74
2021/08/15 04:04:37;;;;;;;16.63;8.63;;;;;;;20.38;60.83;98977.97;125683;1093;103016;-74
2021/08/15 04:07:06;;;;;;;15.83;8.37;;;;;;;20.40;60.75;98980.52;125672;1093;103065;-72
2021/08/15 04:09:34;;;;;;;18.53;9.37;;;;;;;20.42;60.77;98977.62;125646;1093;103003;-73
2021/08/15 04:12:02;;;;;;;18.87;8.80;;;;;;;20.44;60.85;98971.04;125707;1093;103096;-74
2021/08/15 04:14:31;;;;;;;17.00;8.43;;;;;;;20.47;60.65;98976.09;125654;1093;103030;-73
2021/08/15 04:16:59;;;;;;;20.23;9.63;;;;;;;20.49;60.87;98981.30;125693;1093;103031;-73
2021/08/15 04:19:27;;;;;;;19.40;8.77;;;;;;;20.53;60.93;98975.38;125658;1093;104456;-73
2021/08/15 04:21:56;;;;;;;17.73;8.87;;;;;;;20.56;61.05;98981.44;125628;1094;102977;-73
2021/08/15 04:24:24;;;;;;;16.40;7.83;;;;;;;20.59;60.92;98973.81;125657;1093;103116;-73
2021/08/15 04:26:52;;;;;;;17.67;8.73;;;;;;;20.60;61.12;98983.59;125635;1093;103034;-74
2021/08/15 04:29:21;;;;;;;17.33;8.50;;;;;;;20.65;60.92;98974.94;125716;1093;103106;-72
2021/08/15 04:31:49;;;;;;;16.40;8.47;;;;;;;20.67;61.09;98979.16;125677;1093;103102;-71
2021/08/15 04:34:18;;;;;;;18.10;8.60;;;;;;;20.70;61.06;98982.53;125651;1093;103060;-73
2021/08/15 04:36:46;;;;;;;18.60;8.63;;;;;;;20.72;61.15;98985.89;125692;1093;102938;-74
2021/08/15 04:39:14;;;;;;;21.43;9.27;;;;;;;20.76;61.08;98979.94;125691;1093;102929;-74
2021/08/15 04:41:43;;;;;;;17.87;9.00;;;;;;;20.79;61.09;98987.72;125737;1093;103036;-73
2021/08/15 04:44:11;;;;;;;18.07;9.10;;;;;;;20.84;61.00;98991.75;125652;1096;103035;-73
2021/08/15 04:46:40;;;;;;;16.30;8.77;;;;;;;20.87;61.30;98992.22;125651;1093;103129;-74
2021/08/15 04:49:09;;;;;;;18.90;9.10;;;;;;;20.92;61.22;98991.70;125676;1093;103374;-73
2021/08/15 04:51:37;;;;;;;20.00;8.93;;;;;;;20.95;60.87;98991.34;125654;1093;103443;-74
2021/08/15 04:54:05;;;;;;;17.63;8.77;;;;;;;20.99;61.26;98989.09;125684;1093;102927;-73
2021/08/15 04:56:34;;;;;;;17.00;8.30;;;;;;;21.02;61.44;98988.73;125678;1093;103185;-73
2021/08/15 04:59:02;;;;;;;16.77;8.33;;;;;;;21.07;61.38;98999.86;125651;1092;103068;-72
2021/08/15 05:01:30;;;;;;;17.20;8.95;;;;;;;21.09;61.38;98993.23;125683;1093;103031;-72
2021/08/15 05:03:59;;;;;;;22.50;9.17;;;;;;;21.16;61.33;98992.50;125684;1093;103534;-73
2021/08/15 05:06:33;;;;;;;17.45;8.90;;;;;;;21.19;61.24;98994.84;125717;1093;102943;-72
2021/08/15 05:09:03;;;;;;;17.47;8.53;;;;;;;21.24;61.53;98992.44;125677;1093;103012;-73
2021/08/15 05:11:31;;;;;;;17.13;8.63;;;;;;;21.27;61.52;98992.91;125671;1092;102913;-73
2021/08/15 05:13:59;;;;;;;16.47;9.13;;;;;;;21.32;61.28;98994.22;125708;1093;102998;-72
2021/08/15 05:16:28;;;;;;;18.63;9.13;;;;;;;21.36;61.46;98996.39;125657;1096;102993;-72
2021/08/15 05:18:56;;;;;;;19.17;8.67;;;;;;;21.40;61.49;98994.97;125700;1093;102939;-74
2021/08/15 05:21:25;;;;;;;16.40;8.90;;;;;;;21.46;61.33;98993.42;125659;1093;103084;-74
2021/08/15 05:23:58;;;;;;;18.47;8.50;;;;;;;21.53;61.54;98997.07;125658;1093;103121;-73
2021/08/15 05:26:26;;;;;;;18.97;8.57;;;;;;;21.58;61.65;98993.80;125678;1093;102941;-72
2021/08/15 05:28:55;;;;;;;19.87;9.13;;;;;;;21.64;61.53;98993.09;125734;1092;102912;-72
2021/08/15 05:31:23;;;;;;;16.33;8.50;;;;;;;21.69;62.05;98992.53;125677;1093;103028;-72
2021/08/15 05:33:52;;;;;;;19.20;8.80;;;;;;;21.76;61.61;98989.94;125709;1092;103089;-72
2021/08/15 05:36:20;;;;;;;22.23;9.37;;;;;;;21.80;61.58;98989.36;125722;1093;103106;-71
2021/08/15 05:38:48;;;;;;;18.73;8.80;;;;;;;21.85;61.82;98997.77;125694;1093;103012;-72
2021/08/15 05:41:17;;;;;;;16.07;8.90;;;;;;;21.92;61.56;98994.32;125673;1093;102946;-74
2021/08/15 05:43:45;;;;;;;19.50;9.37;;;;;;;21.98;61.53;98998.98;125686;1093;103001;-75
2021/08/15 05:46:14;;;;;;;19.40;9.00;;;;;;;22.04;61.40;98997.39;125655;1093;102967;-73
2021/08/15 05:48:44;;;;;;;17.20;9.10;;;;;;;22.08;61.55;98996.81;125634;1093;103032;-74
2021/08/15 05:51:12;;;;;;;19.90;9.27;;;;;;;22.15;61.46;98999.63;125630;1093;102921;-74
2021/08/15 05:53:42;;;;;;;16.65;8.45;;;;;;;22.23;62.17;98998.67;125652;1093;103512;-71
2021/08/15 05:56:12;;;;;;;16.00;8.47;;;;;;;22.30;61.89;98996.89;125695;1093;102933;-75
2021/08/15 05:58:41;;;;;;;16.60;8.47;;;;;;;22.37;61.46;98997.81;125662;1096;103407;-75
2021/08/15 06:01:10;;;;;;;18.37;8.73;;;;;;;22.41;61.92;98990.13;125635;1097;103111;-73
2021/08/15 06:03:38;;;;;;;18.93;8.67;;;;;;;22.48;61.90;98995.66;125666;1094;102962;-71
2021/08/15 06:06:07;;;;;;;19.63;8.67;;;;;;;22.53;61.80;98994.06;125691;1093;102995;-74
2021/08/15 06:08:35;;;;;;;14.93;8.10;;;;;;;22.59;62.09;98996.02;125695;1093;102911;-79
2021/08/15 06:11:03;;;;;;;17.27;7.60;;;;;;;22.66;61.81;98998.79;125674;1093;103062;-72
2021/08/15 06:13:32;;;;;;;17.70;8.43;;;;;;;22.72;61.83;98994.45;125659;1093;103165;-73
2021/08/15 06:16:00;;;;;;;17.93;8.90;;;;;;;22.79;61.71;98994.55;125691;1092;102911;-73
2021/08/15 06:18:29;;;;;;;17.27;8.47;;;;;;;22.86;61.62;98990.86;125679;1094;102946;-71
2021/08/15 06:20:57;;;;;;;14.57;7.57;;;;;;;22.94;62.18;98994.48;125744;1093;102939;-67
2021/08/15 06:23:25;;;;;;;18.30;8.57;;;;;;;23.00;61.70;98991.00;125647;1093;103537;-69
2021/08/15 06:25:54;;;;;;;17.43;8.27;;;;;;;23.07;61.59;98993.75;125638;1092;102969;-75
2021/08/15 06:28:23;;;;;;;16.37;8.73;;;;;;;23.13;61.74;98987.55;125615;1093;102889;-71
2021/08/15 06:30:51;;;;;;;19.77;8.27;;;;;;;23.19;62.20;98994.92;125523;1093;103074;-73
2021/08/15 06:33:20;;;;;;;18.65;8.35;;;;;;;23.26;62.08;99000.42;125655;1093;103012;-68
2021/08/15 06:35:49;;;;;;;16.53;8.47;;;;;;;23.33;62.02;98991.29;125657;1092;102945;-71
2021/08/15 06:38:17;;;;;;;16.90;8.07;;;;;;;23.41;61.77;98993.04;126300;1093;102975;-71
2021/08/15 06:40:46;;;;;;;20.05;8.45;;;;;;;23.48;61.83;98993.91;125633;1092;102939;-72
2021/08/15 06:43:14;;;;;;;17.17;8.10;;;;;;;23.54;61.67;98986.01;125641;1092;103000;-68
2021/08/15 06:45:45;;;;;;;16.97;7.77;;;;;;;23.61;61.49;98984.18;125671;1093;103125;-69
2021/08/15 06:48:13;;;;;;;17.35;8.45;;;;;;;23.69;62.12;98984.03;125696;1093;102995;-70
2021/08/15 06:50:41;;;;;;;16.73;8.47;;;;;;;23.77;61.50;98986.59;125667;1093;103055;-72
2021/08/15 06:53:10;;;;;;;19.20;9.00;;;;;;;23.86;61.88;98975.55;125655;1093;102906;-70
2021/08/15 06:55:38;;;;;;;19.07;9.00;;;;;;;23.93;61.85;98976.42;125657;1093;103473;-75
2021/08/15 06:58:06;;;;;;;18.23;9.87;;;;;;;24.02;62.16;98983.41;126146;1093;102987;-74
2021/08/15 07:00:35;;;;;;;17.65;8.40;;;;;;;24.11;61.25;98978.63;125680;1095;104682;-77
2021/08/15 07:03:03;;;;;;;17.17;7.77;;;;;;;24.20;61.83;98982.03;125688;1093;103059;-72
2021/08/15 07:05:35;;;;;;;18.23;8.67;;;;;;;24.28;61.11;98976.39;125679;1093;103039;-69
2021/08/15 07:08:03;;;;;;;17.27;8.30;;;;;;;24.35;61.65;98971.83;125673;1093;102939;-72
2021/08/15 07:10:33;;;;;;;18.77;8.57;;;;;;;24.46;61.67;98975.00;125691;1096;103376;-72
2021/08/15 07:13:08;;;;;;;15.47;8.20;;;;;;;24.62;61.23;98971.07;125667;1095;103140;-70
2021/08/15 07:15:38;;;;;;;14.40;7.83;;;;;;;25.70;60.21;98966.53;125625;1093;103016;-76
2021/08/15 07:18:07;;;;;;;15.13;7.93;;;;;;;27.33;59.25;98976.36;125663;1093;102945;-74
2021/08/15 07:20:35;;;;;;;16.40;7.30;;;;;;;28.97;59.48;98971.29;125671;1093;102912;-78
2021/08/15 07:23:03;;;;;;;14.33;7.20;;;;;;;30.52;58.92;98975.84;125674;1093;103008;-68
2021/08/15 07:25:32;;;;;;;15.53;7.53;;;;;;;31.76;58.76;98978.77;125675;1093;103017;-73
2021/08/15 07:28:01;;;;;;;12.93;6.60;;;;;;;32.95;58.26;98979.35;125680;1093;102919;-73
2021/08/15 07:30:33;;;;;;;12.40;6.77;;;;;;;34.24;58.06;98982.13;125696;1093;103161;-73
2021/08/15 07:33:07;;;;;;;12.33;6.60;;;;;;;35.55;57.63;98976.51;125609;1093;102976;-72
2021/08/15 07:35:38;;;;;;;13.60;6.30;;;;;;;36.55;57.04;98973.12;125706;1093;102913;-74
2021/08/15 07:38:07;;;;;;;13.23;7.15;;;;;;;37.65;56.79;98977.52;125725;1092;102946;-74
2021/08/15 07:40:37;;;;;;;13.33;6.23;;;;;;;38.68;56.05;98975.41;125605;1093;103112;-74
2021/08/15 07:43:07;;;;;;;12.50;6.43;;;;;;;39.48;55.62;98972.75;125701;1093;103063;-72
2021/08/15 07:45:35;;;;;;;13.60;6.30;;;;;;;40.00;54.75;98972.59;125667;1092;102997;-71
2021/08/15 07:48:06;;;;;;;11.30;6.27;;;;;;;40.27;53.48;98973.70;125707;1093;102904;-74
2021/08/15 07:50:39;;;;;;;15.23;6.55;;;;;;;40.81;53.47;98981.42;125691;1092;102920;-74
2021/08/15 07:53:15;;;;;;;13.00;6.70;;;;;;;41.35;52.83;98978.69;125657;1093;102933;-73
2021/08/15 07:55:44;;;;;;;14.10;6.13;;;;;;;42.00;51.75;98966.34;125665;1093;103180;-76
2021/08/15 07:58:14;;;;;;;18.40;7.77;;;;;;;42.38;51.06;98971.38;125642;1093;102973;-75
2021/08/15 08:00:45;;;;;;;18.50;8.00;;;;;;;42.63;50.17;98966.14;125664;1096;103129;-75
2021/08/15 08:03:15;;;;;;;15.60;6.77;;;;;;;42.92;49.26;98968.30;125716;1095;102911;-76
2021/08/15 08:05:46;;;;;;;24.07;9.00;;;;;;;43.13;48.40;98970.38;125654;1096;103416;-75
2021/08/15 08:08:15;;;;;;;24.98;9.88;;;;;;;43.33;47.95;98966.08;125678;1095;103428;-73
2021/08/15 08:10:49;;;;;;;26.90;9.90;;;;;;;43.61;47.51;98965.67;125643;1095;103129;-75
2021/08/15 08:13:18;;;;;;;20.95;9.20;;;;;;;43.83;46.33;98960.97;125651;1094;102919;-80
2021/08/15 08:15:48;;;;;;;32.67;12.97;;;;;;;44.06;45.81;98963.48;125649;1095;103015;-72
2021/08/15 08:18:18;;;;;;;;;;;;;;;44.25;43.34;98963.03;125686;1094;103061;-73
2021/08/15 08:20:46;;;;;;;18.90;7.70;;;;;;;44.31;44.33;98962.51;125662;1095;103198;-72
2021/08/15 08:23:17;;;;;;;17.03;8.30;;;;;;;44.56;43.21;98951.45;125625;1094;102938;-77
2021/08/15 08:25:47;;;;;;;23.83;10.03;;;;;;;44.64;43.38;98963.74;125773;1094;102911;-74
2021/08/15 08:28:15;;;;;;;16.13;7.07;;;;;;;44.78;42.00;98954.23;125634;1095;103090;-75
2021/08/15 08:30:44;;;;;;;14.00;5.97;;;;;;;44.78;41.76;98957.03;125642;1094;103509;-73
2021/08/15 08:33:12;;;;;;;25.20;11.33;;;;;;;44.69;41.02;98960.73;125670;1096;102948;-71
2021/08/15 08:35:41;;;;;;;14.53;6.63;;;;;;;44.70;40.00;98958.77;125654;1095;103012;-72
2021/08/15 08:38:09;;;;;;;26.33;12.33;;;;;;;44.32;40.19;98949.30;125719;1095;103009;-72
2021/08/15 08:40:40;;;;;;;20.17;8.20;;;;;;;44.46;39.42;98952.69;125661;1093;103011;-74
2021/08/15 08:43:08;;;;;;;;;;;;;;;44.41;38.00;98946.45;125743;1094;103129;-76
2021/08/15 08:45:39;;;;;;;17.83;8.00;;;;;;;43.98;38.33;98946.39;125670;1094;103066;-76
2021/08/15 08:48:08;;;;;;;17.13;7.57;;;;;;;44.27;38.14;98955.11;125609;1096;103094;-76
2021/08/15 08:50:39;;;;;;;14.80;6.77;;;;;;;44.44;37.15;98946.58;125708;1095;102916;-76
2021/08/15 08:53:07;;;;;;;14.00;6.37;;;;;;;43.97;36.28;98943.91;125673;1094;102967;-75
2021/08/15 08:55:40;;;;;;;17.93;7.67;;;;;;;43.88;36.09;98941.17;125590;1095;102919;-77
2021/08/15 08:58:09;;;;;;;17.53;7.50;;;;;;;43.96;36.43;98933.86;125603;1096;103014;-72
2021/08/15 09:00:38;;;;;;;18.63;8.03;;;;;;;44.07;35.76;98940.75;125686;1096;103017;-72
2021/08/15 09:03:09;;;;;;;13.63;6.20;;;;;;;44.11;35.53;98936.11;125658;1095;102927;-77
2021/08/15 09:05:50;;;;;;;10.90;6.10;;;;;;;43.99;35.09;98935.98;125685;1095;103142;-75
2021/08/15 09:08:45;;;;;;;16.70;7.05;;;;;;;43.90;34.93;98930.45;125664;1095;102911;-74
2021/08/15 09:11:23;;;;;;;13.37;7.00;;;;;;;43.84;34.60;98929.00;125622;1094;103050;-72
2021/08/15 09:14:12;;;;;;;16.70;6.80;;;;;;;43.81;34.17;98919.31;125672;1094;102948;-73
2021/08/15 09:17:07;;;;;;;10.45;6.60;;;;;;;43.82;34.07;98917.31;125670;1095;102998;-71
2021/08/15 09:19:53;;;;;;;15.10;6.53;;;;;;;43.81;33.53;98912.88;125690;1096;103006;-73
2021/08/15 09:22:25;;;;;;;11.93;6.27;;;;;;;43.83;33.11;98916.16;125602;1096;103049;-75
2021/08/15 09:25:17;;;;;;;13.45;6.25;;;;;;;43.65;32.97;98912.63;125633;1095;102911;-74
2021/08/15 09:27:57;;;;;;;13.30;5.93;;;;;;;43.30;32.44;98910.77;125623;1094;102916;-72
2021/08/15 09:30:28;;;;;;;10.23;6.47;;;;;;;43.24;32.39;98907.35;125629;1096;102946;-74
2021/08/15 09:33:01;;;;;;;15.53;6.37;;;;;;;43.25;32.09;98908.16;125666;1095;103097;-75
2021/08/15 09:35:35;;;;;;;11.70;6.00;;;;;;;43.26;31.87;98902.23;125632;1095;103044;-72
2021/08/15 09:38:16;;;;;;;12.47;6.33;;;;;;;43.22;31.72;98900.39;125671;1095;102943;-73
2021/08/15 09:40:49;;;;;;;;;;;;;;;43.16;31.30;98896.17;125680;1095;103004;-75
2021/08/15 09:43:30;;;;;;;13.73;6.23;;;;;;;42.95;31.51;98892.12;125646;1095;102932;-79
2021/08/15 09:46:01;;;;;;;13.60;6.73;;;;;;;42.99;31.18;98890.30;125759;1095;103074;-72
2021/08/15 09:48:37;;;;;;;10.90;6.33;;;;;;;43.04;31.26;98896.84;125704;1095;102956;-73
2021/08/15 09:51:22;;;;;;;13.33;6.70;;;;;;;43.08;30.93;98884.66;125671;1095;103128;-73
2021/08/15 09:53:50;;;;;;;11.33;5.60;;;;;;;43.03;30.47;98887.64;125657;1096;102913;-73
2021/08/15 09:56:41;;;;;;;15.10;6.57;;;;;;;42.75;30.21;98884.38;125672;1095;102932;-73
2021/08/15 09:59:18;;;;;;;11.07;6.07;;;;;;;42.13;30.13;98876.01;125658;1096;102994;-73
2021/08/15 10:01:50;;;;;;;12.53;6.77;;;;;;;41.57;30.36;98872.93;125686;1096;103047;-74
2021/08/15 10:04:24;;;;;;;10.00;5.97;;;;;;;41.08;29.25;98871.70;125706;1096;102919;-76
2021/08/15 10:06:56;;;;;;;11.67;6.60;;;;;;;40.16;29.59;98874.76;125651;1094;102950;-76
2021/08/15 10:09:26;;;;;;;13.83;6.60;;;;;;;39.29;29.57;98862.34;125780;1095;103431;-74
2021/08/15 10:11:54;;;;;;;10.77;6.03;;;;;;;38.60;29.51;98868.56;127585;1095;102464;-74
2021/08/15 10:14:23;;;;;;;12.43;6.10;;;;;;;37.92;29.30;98863.16;127670;1096;100920;-72
2021/08/15 10:17:04;;;;;;;13.08;6.48;;;;;;;37.45;29.77;98862.91;127711;1096;101108;-77
2021/08/15 10:20:00;;;;;;;13.67;7.20;;;;;;;37.11;29.80;98855.47;125800;1095;102911;-73
2021/08/15 10:22:32;;;;;;;13.35;7.23;;;;;;;36.82;30.12;98844.39;125822;1095;102923;-73
2021/08/15 10:25:05;;;;;;;17.40;7.35;;;;;;;36.46;30.14;98840.78;125741;1095;103007;-73
2021/08/15 10:27:42;;;;;;;13.83;7.17;;;;;;;36.13;29.85;98850.70;125647;1095;102920;-72
2021/08/15 10:30:14;;;;;;;13.70;7.60;;;;;;;35.80;30.48;98834.52;125766;1096;103001;-74
2021/08/15 10:32:54;;;;;;;16.90;7.53;;;;;;;35.54;29.80;98842.95;125687;1096;102920;-76
2021/08/15 10:35:28;;;;;;;13.95;7.55;;;;;;;35.23;30.17;98840.27;125802;1095;102962;-70
2021/08/15 10:38:09;;;;;;;16.57;7.57;;;;;;;35.09;30.75;98837.24;125668;1096;103087;-71
2021/08/15 10:40:41;;;;;;;13.38;7.13;;;;;;;34.98;31.06;98827.34;125674;1095;103351;-73
2021/08/15 10:43:11;;;;;;;16.97;7.47;;;;;;;34.83;30.61;98828.98;125775;1096;102932;-75
2021/08/15 10:45:42;;;;;;;14.60;7.23;;;;;;;34.62;30.71;98825.41;125716;1096;103047;-77
2021/08/15 10:48:21;;;;;;;12.70;7.03;;;;;;;34.28;30.65;98829.50;125739;1094;102921;-72
2021/08/15 10:51:00;;;;;;;15.77;7.10;;;;;;;34.09;31.63;98829.20;125611;1096;103059;-71
2021/08/15 10:53:29;;;;;;;14.13;6.67;;;;;;;34.03;31.87;98829.47;125625;1094;103010;-72
2021/08/15 10:56:08;;;;;;;14.20;6.50;;;;;;;33.92;31.70;98818.41;125732;1096;103018;-74
2021/08/15 10:58:42;;;;;;;17.33;7.60;;;;;;;33.74;31.62;98816.95;125623;1094;103419;-75
2021/08/15 11:01:18;;;;;;;19.10;7.60;;;;;;;33.59;31.79;98816.91;125740;1093;102918;-75
2021/08/15 11:03:47;;;;;;;15.87;7.53;;;;;;;33.37;32.34;98815.97;125627;1095;102962;-74
2021/08/15 11:06:30;;;;;;;15.33;7.97;;;;;;;33.26;32.12;98815.06;125690;1093;103062;-77
2021/08/15 11:09:01;;;;;;;18.13;8.20;;;;;;;33.16;32.39;98819.70;125687;1094;102926;-76
2021/08/15 11:11:31;;;;;;;16.90;7.63;;;;;;;33.00;32.51;98811.37;125645;1096;102935;-74
2021/08/15 11:14:18;;;;;;;16.77;7.47;;;;;;;32.93;32.80;98806.08;125706;1095;102964;-75
2021/08/15 11:16:49;;;;;;;14.27;7.20;;;;;;;32.88;32.95;98802.47;125686;1094;102913;-76
2021/08/15 11:19:17;;;;;;;15.43;7.50;;;;;;;32.81;33.29;98805.40;125680;1095;103067;-74
2021/08/15 11:22:10;;;;;;;14.43;7.03;;;;;;;32.83;33.15;98800.45;125671;1095;102958;-73
2021/08/15 11:24:43;;;;;;;13.77;6.97;;;;;;;32.92;33.54;98803.59;125669;1095;103447;-71